createdAt,value
2023-05-10T00:02:17.110Z,50.04
2023-05-10T00:07:20.112Z,50.64
2023-05-10T00:12:16.952Z,51.07
2023-05-10T00:17:16.915Z,50.24
2023-05-10T00:22:16.848Z,50.14
2023-05-10T00:27:16.815Z,50.34
2023-05-10T00:32:16.865Z,50.54
2023-05-10T00:37:16.729Z,50.77
2023-05-10T00:42:16.579Z,51.37
2023-05-10T00:47:16.554Z,52.21
2023-05-10T00:52:16.434Z,51.68
2023-05-10T00:57:16.643Z,51.48
2023-05-10T01:02:16.345Z,52.01
2023-05-10T01:07:19.284Z,53.12
2023-05-10T01:12:16.269Z,54.08
2023-05-10T01:17:16.151Z,53.47
2023-05-10T01:22:16.038Z,54.28
2023-05-10T01:27:16.009Z,54.69
2023-05-10T01:32:15.953Z,54.99
2023-05-10T01:37:15.892Z,54.99
2023-05-10T01:42:15.783Z,55.19
2023-05-10T01:47:15.754Z,54.18
2023-05-10T01:52:15.649Z,54.26
2023-05-10T01:57:15.664Z,55.83
2023-05-10T02:02:15.508Z,57.68
2023-05-10T02:07:18.506Z,57.48
2023-05-10T02:12:15.371Z,57.37
2023-05-10T02:17:15.440Z,56.23
2023-05-10T02:22:15.245Z,57.17
2023-05-10T02:27:15.196Z,57.48
2023-05-10T02:32:15.420Z,58.31
2023-05-10T02:37:15.057Z,58.42
2023-05-10T02:42:14.986Z,58.49
2023-05-10T02:47:14.920Z,59.63
2023-05-10T02:52:14.816Z,57.71
2023-05-10T02:57:14.803Z,57.88
2023-05-10T03:02:14.665Z,58.18
2023-05-10T03:07:18.052Z,60.24
2023-05-10T03:12:14.555Z,60.37
2023-05-10T03:17:14.579Z,60.85
2023-05-10T03:22:14.417Z,58.29
2023-05-10T03:27:14.384Z,56.95
2023-05-10T03:32:14.291Z,55.27
2023-05-10T03:37:14.254Z,54.44
2023-05-10T03:42:14.162Z,54.44
2023-05-10T03:47:14.085Z,54.00
2023-05-10T03:52:14.013Z,53.50
2023-05-10T03:57:13.952Z,53.14
2023-05-10T04:02:13.890Z,52.87
2023-05-10T04:07:16.822Z,52.61
2023-05-10T04:12:13.731Z,53.78
2023-05-10T04:17:13.879Z,53.67
2023-05-10T04:22:13.635Z,54.38
2023-05-10T04:27:13.681Z,56.23
2023-05-10T04:32:13.494Z,56.15
2023-05-10T04:37:13.456Z,56.66
2023-05-10T04:42:13.339Z,57.27
2023-05-10T04:47:13.305Z,56.73
2023-05-10T04:52:13.216Z,57.87
2023-05-10T04:57:13.200Z,56.76
2023-05-10T05:02:13.072Z,57.14
2023-05-10T05:07:16.041Z,57.24
2023-05-10T05:12:12.940Z,58.28
2023-05-10T05:17:12.907Z,56.94
2023-05-10T05:22:12.822Z,57.07
2023-05-10T05:27:12.799Z,59.34
2023-05-10T05:32:12.716Z,59.51
2023-05-10T05:37:12.824Z,60.17
2023-05-10T05:42:12.570Z,60.32
2023-05-10T05:47:12.542Z,59.28
2023-05-10T05:52:12.417Z,58.70
2023-05-10T05:57:12.385Z,59.99
2023-05-10T06:02:12.333Z,58.52
2023-05-10T06:07:15.260Z,56.45
2023-05-10T06:12:12.136Z,57.68
2023-05-10T06:17:12.144Z,56.82
2023-05-10T06:22:12.031Z,58.12
2023-05-10T06:27:11.998Z,57.38
2023-05-10T06:32:11.898Z,58.80
2023-05-10T06:37:11.907Z,58.52
2023-05-10T06:42:11.753Z,58.72
2023-05-10T06:47:11.815Z,59.86
2023-05-10T06:52:11.675Z,59.53
2023-05-10T06:57:23.285Z,60.57
2023-05-10T07:02:12.676Z,63.62
2023-05-10T07:07:14.479Z,64.84
2023-05-10T07:12:13.413Z,66.72
2023-05-10T07:17:11.381Z,67.93
2023-05-10T07:22:11.261Z,68.07
2023-05-10T07:27:11.207Z,70.73
2023-05-10T07:32:11.157Z,71.91
2023-05-10T07:37:11.091Z,73.05
2023-05-10T07:42:11.009Z,72.17
2023-05-10T07:47:11.014Z,71.70
2023-05-10T07:52:10.832Z,73.89
2023-05-10T07:57:10.874Z,75.34
2023-05-10T08:02:10.714Z,75.00
2023-05-10T08:07:13.705Z,75.31
2023-05-10T08:12:10.684Z,76.45
2023-05-10T08:17:10.575Z,74.93
2023-05-10T08:22:10.478Z,74.76
2023-05-10T08:27:10.433Z,73.45
2023-05-10T08:32:10.320Z,73.82
2023-05-10T08:37:10.296Z,73.01
2023-05-10T08:42:10.212Z,73.28
2023-05-10T08:47:10.218Z,72.97
2023-05-10T08:52:10.058Z,73.58
2023-05-10T08:57:10.057Z,74.73
2023-05-10T09:02:09.926Z,73.32
2023-05-10T09:07:12.978Z,72.24
2023-05-10T09:12:10.768Z,73.41
2023-05-10T09:17:09.903Z,70.63
2023-05-10T09:22:09.689Z,72.40
2023-05-10T09:27:09.716Z,71.30
2023-05-10T09:32:09.540Z,69.19
2023-05-10T09:37:09.520Z,71.09
2023-05-10T09:42:09.739Z,67.72
2023-05-10T09:47:09.391Z,68.49
2023-05-10T09:52:09.281Z,68.92
2023-05-10T09:57:09.241Z,69.29
2023-05-10T10:02:09.127Z,68.52
2023-05-10T10:07:12.100Z,67.92
2023-05-10T10:12:09.006Z,65.05
2023-05-10T10:17:09.326Z,63.39
2023-05-10T10:22:08.864Z,65.25
2023-05-10T10:27:08.827Z,63.15
2023-05-10T10:32:08.741Z,63.56
2023-05-10T10:37:08.718Z,67.99
2023-05-10T10:42:08.628Z,67.22
2023-05-10T10:47:08.629Z,69.19
2023-05-10T10:52:08.539Z,69.92
2023-05-10T10:57:08.446Z,75.53
2023-05-10T11:02:08.351Z,79.29
2023-05-10T11:07:11.349Z,80.20
2023-05-10T11:12:08.176Z,78.92
2023-05-10T11:17:08.277Z,79.22
2023-05-10T11:22:08.050Z,75.39
2023-05-10T11:27:08.100Z,77.48
2023-05-10T11:32:07.912Z,76.24
2023-05-10T11:37:07.907Z,75.63
2023-05-10T11:42:07.792Z,77.99
2023-05-10T11:47:07.783Z,77.86
2023-05-10T11:52:07.682Z,77.35
2023-05-10T11:57:07.636Z,79.38
2023-05-10T12:02:07.544Z,78.59
2023-05-10T12:07:10.515Z,78.77
2023-05-10T12:12:07.408Z,79.85
2023-05-10T12:17:07.389Z,77.59
2023-05-10T12:22:07.328Z,77.86
2023-05-10T12:27:07.247Z,78.50
2023-05-10T12:32:07.193Z,77.31
2023-05-10T12:37:07.173Z,74.73
2023-05-10T12:42:07.045Z,74.32
2023-05-10T12:47:07.096Z,72.74
2023-05-10T12:52:06.901Z,72.31
2023-05-10T12:57:06.891Z,71.77
2023-05-10T13:02:06.768Z,68.99
2023-05-10T13:07:09.777Z,68.02
2023-05-10T13:12:08.111Z,71.43
2023-05-10T13:17:06.698Z,72.41
2023-05-10T13:22:06.557Z,72.88
2023-05-10T13:27:06.521Z,76.31
2023-05-10T13:32:06.399Z,76.77
2023-05-10T13:37:06.351Z,76.14
2023-05-10T13:42:06.254Z,77.68
2023-05-10T13:47:06.291Z,76.71
2023-05-10T13:52:06.139Z,75.40
2023-05-10T13:57:06.180Z,74.32
2023-05-10T14:02:06.045Z,73.95
2023-05-10T14:07:08.948Z,73.31
2023-05-10T14:12:05.952Z,71.90
2023-05-10T14:17:05.845Z,69.65
2023-05-10T14:22:05.721Z,69.69
2023-05-10T14:27:05.705Z,69.35
2023-05-10T14:32:05.644Z,67.58
2023-05-10T14:37:05.596Z,66.98
2023-05-10T14:42:05.463Z,66.65
2023-05-10T14:47:05.531Z,62.75
2023-05-10T14:52:05.324Z,63.65
2023-05-10T14:57:05.298Z,59.99
2023-05-10T15:02:05.196Z,60.05
2023-05-10T15:07:08.247Z,62.37
2023-05-10T15:12:05.140Z,61.01
2023-05-10T15:17:05.036Z,62.35
2023-05-10T15:22:04.934Z,60.65
2023-05-10T15:27:04.910Z,61.01
2023-05-10T15:32:04.832Z,62.07
2023-05-10T15:37:04.911Z,62.46
2023-05-10T15:42:04.828Z,62.49
2023-05-10T15:47:04.866Z,61.08
2023-05-10T15:52:04.617Z,60.78
2023-05-10T15:57:04.887Z,60.98
2023-05-10T16:02:05.033Z,61.38
2023-05-10T16:07:07.429Z,62.86
2023-05-10T16:12:04.307Z,63.23
2023-05-10T16:17:04.782Z,63.96
2023-05-10T16:22:04.268Z,64.04
2023-05-10T16:27:04.210Z,63.17
2023-05-10T16:32:04.149Z,64.50
2023-05-10T16:37:04.044Z,64.17
2023-05-10T16:42:03.936Z,65.30
2023-05-10T16:47:04.029Z,63.36
2023-05-10T16:52:03.906Z,63.33
2023-05-10T16:57:03.793Z,62.43
2023-05-10T17:02:03.682Z,62.69
2023-05-10T17:07:06.763Z,62.83
2023-05-10T17:12:03.566Z,63.73
2023-05-10T17:17:03.520Z,62.30
2023-05-10T17:22:03.346Z,62.90
2023-05-10T17:27:03.357Z,64.04
2023-05-10T17:32:03.357Z,62.93
2023-05-10T17:37:03.245Z,63.13
2023-05-10T17:42:03.170Z,63.73
2023-05-10T17:47:03.197Z,65.67
2023-05-10T17:52:02.941Z,64.87
2023-05-10T17:57:02.951Z,64.70
2023-05-10T18:02:02.857Z,66.03
2023-05-10T18:07:05.816Z,66.84
2023-05-10T18:12:02.754Z,68.62
2023-05-10T18:17:03.020Z,70.86
2023-05-10T18:22:02.778Z,72.20
2023-05-10T18:27:02.553Z,72.61
2023-05-10T18:32:02.496Z,73.99
2023-05-10T18:37:02.409Z,74.08
2023-05-10T18:42:02.285Z,76.54
2023-05-10T18:47:02.267Z,77.39
2023-05-10T18:52:02.194Z,76.25
2023-05-10T18:57:02.235Z,75.37
2023-05-10T19:02:02.110Z,76.51
2023-05-10T19:07:04.987Z,79.41
2023-05-10T19:12:01.934Z,81.85
2023-05-10T19:17:01.934Z,83.72
2023-05-10T19:22:01.802Z,85.99
2023-05-10T19:27:01.947Z,87.14
2023-05-10T19:32:01.706Z,86.69
2023-05-10T19:37:01.647Z,87.05
2023-05-10T19:42:01.470Z,86.49
2023-05-10T19:47:01.569Z,86.39
2023-05-10T19:52:01.389Z,86.98
2023-05-10T19:57:01.318Z,87.65
2023-05-10T20:02:01.226Z,87.45
2023-05-10T20:07:04.186Z,87.69
2023-05-10T20:12:01.121Z,89.65
2023-05-10T20:17:01.160Z,88.25
2023-05-10T20:22:01.000Z,88.05
2023-05-10T20:27:00.943Z,87.99
2023-05-10T20:32:00.832Z,87.69
2023-05-10T20:37:00.888Z,89.29
2023-05-10T20:42:00.698Z,89.50
2023-05-10T20:47:00.684Z,89.59
2023-05-10T20:52:00.543Z,89.25
2023-05-10T20:57:00.532Z,88.40
2023-05-10T21:02:00.569Z,88.95
2023-05-10T21:07:03.430Z,89.11
2023-05-10T21:12:00.366Z,89.76
2023-05-10T21:17:00.290Z,88.80
2023-05-10T21:22:00.199Z,88.95
2023-05-10T21:27:00.147Z,89.25
2023-05-10T21:32:00.104Z,88.90
2023-05-10T21:37:00.014Z,88.34
2023-05-10T21:41:59.899Z,88.75
2023-05-10T21:47:00.147Z,88.58
2023-05-10T21:51:59.779Z,88.78
2023-05-10T21:56:59.808Z,88.95
2023-05-10T22:01:59.696Z,88.68
2023-05-10T22:07:02.624Z,88.99
2023-05-10T22:11:59.560Z,89.09
2023-05-10T22:16:59.732Z,88.18
2023-05-10T22:21:59.382Z,88.89
2023-05-10T22:26:59.330Z,89.33
2023-05-10T22:31:59.227Z,89.54
2023-05-10T22:36:59.212Z,89.64
2023-05-10T22:41:59.104Z,89.43
2023-05-10T22:46:59.140Z,89.43
2023-05-10T22:51:59.957Z,89.54
2023-05-10T22:56:59.290Z,89.43
2023-05-10T23:01:58.857Z,89.28
2023-05-10T23:07:01.820Z,89.37
2023-05-10T23:11:58.690Z,90.53
2023-05-10T23:16:58.695Z,89.54
2023-05-10T23:21:58.561Z,88.68
2023-05-10T23:26:58.501Z,88.76
2023-05-10T23:31:58.430Z,89.28
2023-05-10T23:36:58.438Z,89.13
2023-05-10T23:41:58.321Z,88.82
2023-05-10T23:46:58.316Z,89.03
2023-05-10T23:51:58.195Z,88.62
2023-05-10T23:56:58.193Z,89.03
